createdAt,value
2022-08-01T18:20:05.253Z,20.80
2022-08-01T18:25:08.842Z,20.68
2022-08-01T18:30:11.669Z,20.58
2022-08-01T18:35:14.608Z,20.49
2022-08-01T18:40:22.759Z,20.42
2022-08-01T18:45:25.421Z,20.35
2022-08-01T18:50:27.808Z,20.28
2022-08-01T19:09:40.754Z,20.17
2022-08-01T19:14:46.066Z,20.10
2022-08-01T19:20:08.159Z,20.03
2022-08-01T19:25:10.259Z,19.94
2022-08-01T19:30:17.151Z,19.85
2022-08-01T19:35:21.948Z,19.75
2022-08-01T19:40:27.462Z,19.67
2022-08-01T19:45:33.293Z,19.63
2022-08-01T19:50:40.553Z,19.62
2022-08-01T19:55:43.507Z,19.59
2022-08-01T20:00:53.338Z,19.58
2022-08-01T20:05:56.507Z,19.57
2022-08-01T20:11:05.432Z,19.54
2022-08-01T20:16:19.431Z,19.50
2022-08-01T20:21:26.610Z,19.49
2022-08-01T20:26:33.927Z,19.51
2022-08-01T20:31:44.115Z,19.55
2022-08-01T20:36:48.085Z,19.57
2022-08-01T20:41:59.693Z,19.58
2022-08-01T20:47:13.639Z,19.61
2022-08-01T20:52:27.389Z,19.64
2022-08-01T20:57:29.108Z,19.65
2022-08-01T21:03:01.115Z,19.69
2022-08-01T21:08:12.997Z,19.72
2022-08-01T21:13:21.334Z,19.74
2022-08-01T21:18:33.785Z,19.73
2022-08-01T21:23:50.275Z,19.72
2022-08-01T21:28:55.257Z,19.70
2022-08-01T21:34:02.820Z,19.65
2022-08-01T21:39:07.015Z,19.57
2022-08-01T21:44:14.288Z,19.45
2022-08-01T21:49:16.732Z,19.32
2022-08-01T21:54:38.334Z,19.20
2022-08-01T21:59:46.593Z,19.10
2022-08-01T22:04:58.981Z,19.01
2022-08-01T22:10:05.034Z,18.93
2022-08-01T22:15:08.374Z,18.84
2022-08-01T22:20:12.781Z,18.78
2022-08-01T22:25:16.356Z,18.75
2022-08-01T22:30:18.737Z,18.72
2022-08-01T22:35:21.202Z,18.69
2022-08-01T22:40:23.234Z,18.63
2022-08-01T22:45:41.721Z,18.56
2022-08-01T22:50:46.345Z,18.48
2022-08-01T22:55:59.007Z,18.40
2022-08-01T23:01:02.396Z,18.35
2022-08-01T23:06:22.226Z,18.34
2022-08-01T23:11:24.440Z,18.35
2022-08-01T23:16:28.740Z,18.38
2022-08-01T23:21:31.734Z,18.42
2022-08-01T23:26:35.958Z,18.43
2022-08-01T23:31:50.929Z,18.44
2022-08-01T23:37:00.005Z,18.42
2022-08-01T23:42:05.412Z,18.41
2022-08-01T23:47:10.740Z,18.38
2022-08-01T23:52:20.589Z,18.35
2022-08-01T23:57:22.944Z,18.32
